Time;durP1;ratioP1;P1;durP2;ratioP2;P2;SDS_P1;SDS_P2;PMS_P1;PMS_P2;Temp;Humidity;BMP_temperature;BMP_pressure;BME280_temperature;BME280_humidity;BME280_pressure;Samples;Min_cycle;Max_cycle;Signal;HPM_P1;HPM_P2
2023/10/27 00:01:52;;;;;;;98.68;34.00;;;;;;;9.34;nan;99330.84;5034117;28;20030;-80
2023/10/27 00:04:17;;;;;;;91.95;32.63;;;;;;;9.35;nan;99332.47;5034089;28;20061;-80
2023/10/27 00:06:42;;;;;;;92.88;31.98;;;;;;;9.35;nan;99332.47;5034154;28;20385;-79
2023/10/27 00:09:08;;;;;;;96.63;31.85;;;;;;;9.35;nan;99335.13;5033679;28;20033;-81
2023/10/27 00:11:35;;;;;;;95.70;32.50;;;;;;;9.35;nan;99337.78;5033710;28;20022;-81
2023/10/27 00:14:01;;;;;;;91.95;31.63;;;;;;;9.34;nan;99336.16;5033376;28;20025;-81
2023/10/27 00:16:26;;;;;;;90.90;31.00;;;;;;;9.33;nan;99329.16;5033089;28;20033;-80
2023/10/27 00:18:51;;;;;;;98.93;32.80;;;;;;;9.34;nan;99332.66;5033651;28;20108;-81
2023/10/27 00:21:17;;;;;;;99.60;31.65;;;;;;;9.33;nan;99330.97;5033431;28;20081;-81
2023/10/27 00:23:42;;;;;;;99.22;31.65;;;;;;;9.33;nan;99320.34;5015327;28;20128;-82
2023/10/27 00:26:07;;;;;;;92.82;31.08;;;;;;;9.32;nan;99322.19;5033504;28;20037;-82
2023/10/27 00:28:33;;;;;;;102.05;33.38;;;;;;;9.32;nan;99321.38;5033335;28;20041;-82
2023/10/27 00:31:01;;;;;;;100.95;32.70;;;;;;;9.30;nan;99318.88;5033287;28;20041;-83
2023/10/27 00:33:27;;;;;;;107.65;32.78;;;;;;;9.29;nan;99317.22;5032810;28;20029;-83
2023/10/27 00:35:53;;;;;;;110.20;33.58;;;;;;;9.29;nan;99308.44;5032920;28;20083;-83
2023/10/27 00:38:19;;;;;;;113.03;33.35;;;;;;;9.29;nan;99305.78;5033230;28;20198;-80
2023/10/27 00:40:44;;;;;;;113.93;34.08;;;;;;;9.29;nan;99305.78;5016533;28;20029;-80
2023/10/27 00:43:17;;;;;;;114.63;33.47;;;;;;;9.32;nan;99310.75;5034209;28;20120;-81
2023/10/27 00:45:48;;;;;;;127.78;34.08;;;;;;;9.30;nan;99305.63;5033961;28;20026;-80
2023/10/27 00:48:14;;;;;;;125.65;33.95;;;;;;;9.31;nan;99298.47;5034051;28;20029;-79
2023/10/27 00:50:40;;;;;;;129.20;33.67;;;;;;;9.31;nan;99301.94;5017085;28;20075;-80
2023/10/27 00:53:06;;;;;;;130.18;36.17;;;;;;;9.32;nan;99294.84;5033671;28;20443;-79
2023/10/27 00:55:35;;;;;;;131.68;33.90;;;;;;;9.31;nan;99301.94;5016472;28;20470;-79
2023/10/27 00:58:02;;;;;;;136.95;35.10;;;;;;;9.30;nan;99295.00;5033652;28;20026;-79
2023/10/27 01:00:27;;;;;;;140.13;35.00;;;;;;;9.30;nan;99295.00;5033852;28;20064;-79
2023/10/27 01:02:53;;;;;;;142.88;35.70;;;;;;;9.31;nan;99288.69;5033886;28;20061;-80
2023/10/27 01:05:18;;;;;;;135.10;34.17;;;;;;;9.31;nan;99298.47;5016136;28;20045;-80
2023/10/27 01:07:44;;;;;;;147.32;35.47;;;;;;;9.30;nan;99291.50;5033776;28;20046;-80
2023/10/27 01:10:09;;;;;;;148.93;34.22;;;;;;;9.30;nan;99287.03;5016027;28;20398;-79
2023/10/27 01:12:35;;;;;;;147.52;32.95;;;;;;;9.28;nan;99278.41;5034146;28;20057;-79
2023/10/27 01:15:00;;;;;;;129.13;33.30;;;;;;;9.30;nan;99280.88;5033768;28;20120;-79
2023/10/27 01:17:25;;;;;;;135.00;32.13;;;;;;;9.31;nan;99285.22;5033978;28;20041;-81
2023/10/27 01:19:51;;;;;;;140.30;33.08;;;;;;;9.31;nan;99285.22;5033657;28;20057;-80
2023/10/27 01:22:16;;;;;;;129.27;33.05;;;;;;;9.30;nan;99279.06;5034004;28;20033;-80
2023/10/27 01:24:42;;;;;;;137.82;32.45;;;;;;;9.30;nan;99275.56;5035467;28;20100;-80
2023/10/27 01:27:07;;;;;;;127.18;31.65;;;;;;;9.32;nan;99276.25;5033561;28;20502;-84
2023/10/27 01:29:33;;;;;;;126.25;31.23;;;;;;;9.34;nan;99277.75;5034041;28;20051;-81
2023/10/27 01:31:59;;;;;;;114.13;30.42;;;;;;;9.35;nan;99282.03;5033544;28;20029;-80
2023/10/27 01:34:24;;;;;;;105.68;28.83;;;;;;;9.37;nan;99273.91;5033450;28;20121;-80
2023/10/27 01:36:49;;;;;;;101.63;26.75;;;;;;;9.36;nan;99272.28;5033593;28;20033;-80
2023/10/27 01:39:16;;;;;;;113.55;27.98;;;;;;;9.36;nan;99266.97;5033308;28;20044;-79
2023/10/27 01:41:41;;;;;;;102.93;28.17;;;;;;;9.35;nan;99268.78;5015577;28;20466;-80
2023/10/27 01:44:06;;;;;;;91.50;26.63;;;;;;;9.37;nan;99268.59;5033970;28;20068;-81
2023/10/27 01:46:32;;;;;;;88.32;25.85;;;;;;;9.37;nan;99262.47;5033029;28;20065;-80
2023/10/27 01:48:57;;;;;;;87.13;24.67;;;;;;;9.37;nan;99263.28;5016139;28;20065;-80
2023/10/27 01:51:22;;;;;;;82.15;24.58;;;;;;;9.37;nan;99270.44;5015923;28;20041;-82
2023/10/27 01:53:48;;;;;;;72.72;22.60;;;;;;;9.35;nan;99257.34;5015668;28;20132;-81
2023/10/27 01:56:14;;;;;;;76.32;23.05;;;;;;;9.36;nan;99266.97;5015665;28;20371;-80
2023/10/27 01:58:44;;;;;;;70.57;23.52;;;;;;;9.36;nan;99259.00;4999480;28;20037;-81
2023/10/27 02:01:09;;;;;;;68.88;22.67;;;;;;;9.35;nan;99260.81;5033473;28;20030;-81
2023/10/27 02:03:35;;;;;;;65.88;21.88;;;;;;;9.35;nan;99254.69;5032893;28;20029;-82
2023/10/27 02:06:00;;;;;;;64.90;22.70;;;;;;;9.34;nan;99255.66;5033522;28;20040;-80
2023/10/27 02:08:26;;;;;;;69.13;22.02;;;;;;;9.33;nan;99257.50;5033226;28;20026;-81
2023/10/27 02:10:51;;;;;;;58.22;20.92;;;;;;;9.35;nan;99257.34;5033178;28;20067;-80
2023/10/27 02:13:16;;;;;;;68.60;22.00;;;;;;;9.34;nan;99253.88;5033133;28;20448;-81
2023/10/27 02:15:42;;;;;;;60.97;20.73;;;;;;;9.36;nan;99245.72;5015179;28;20033;-81
2023/10/27 02:18:07;;;;;;;56.55;19.77;;;;;;;9.35;nan;99252.84;5032694;28;20079;-82
2023/10/27 02:20:32;;;;;;;60.05;21.35;;;;;;;9.35;nan;99252.84;5033109;28;20049;-80
2023/10/27 02:22:58;;;;;;;53.80;19.35;;;;;;;9.34;nan;99245.91;5033305;28;20030;-81
2023/10/27 02:25:24;;;;;;;58.45;21.30;;;;;;;9.34;nan;99245.91;5038912;28;20057;-81
2023/10/27 02:27:49;;;;;;;53.03;19.20;;;;;;;9.33;nan;99241.59;5052886;28;20492;-81
2023/10/27 02:30:15;;;;;;;57.08;20.88;;;;;;;9.34;nan;99237.09;5051618;28;20044;-82
2023/10/27 02:32:40;;;;;;;52.42;19.67;;;;;;;9.32;nan;99242.56;5052665;28;20040;-80
2023/10/27 02:35:06;;;;;;;52.53;19.38;;;;;;;9.34;nan;99250.34;5052900;28;20397;-80
2023/10/27 02:37:31;;;;;;;55.78;19.95;;;;;;;9.33;nan;99243.38;5052504;28;20111;-81
2023/10/27 02:39:57;;;;;;;57.97;21.52;;;;;;;9.33;nan;99240.72;5056031;28;20120;-80
2023/10/27 02:42:22;;;;;;;54.88;20.08;;;;;;;9.34;nan;99240.59;5056470;28;20419;-82
2023/10/27 02:44:47;;;;;;;56.40;20.65;;;;;;;9.33;nan;99248.69;5055292;28;20452;-80
2023/10/27 02:47:12;;;;;;;59.20;20.13;;;;;;;9.32;nan;99242.56;5056497;28;20525;-82
2023/10/27 02:49:38;;;;;;;58.50;19.85;;;;;;;9.33;nan;99240.72;5056108;28;20508;-82
2023/10/27 02:52:04;;;;;;;61.03;21.00;;;;;;;9.33;nan;99246.88;5056215;28;20465;-80
2023/10/27 02:54:30;;;;;;;60.15;21.40;;;;;;;9.31;nan;99246.22;5055421;28;20029;-80
2023/10/27 02:56:55;;;;;;;62.28;21.80;;;;;;;9.31;nan;99248.88;5055928;28;20047;-81
2023/10/27 02:59:20;;;;;;;58.88;20.55;;;;;;;9.30;nan;99243.72;5056246;28;20155;-82
2023/10/27 03:01:46;;;;;;;62.42;21.70;;;;;;;9.31;nan;99243.56;5054842;28;20047;-80
2023/10/27 03:04:12;;;;;;;53.05;20.67;;;;;;;9.33;nan;99244.22;5056085;28;20025;-80
2023/10/27 03:06:38;;;;;;;58.58;20.98;;;;;;;9.32;nan;99233.78;5054540;28;20040;-80
2023/10/27 03:09:03;;;;;;;64.65;20.88;;;;;;;9.34;nan;99239.75;5055892;28;20385;-80
2023/10/27 03:11:28;;;;;;;58.72;21.23;;;;;;;9.34;nan;99235.28;5055958;28;20583;-80
2023/10/27 03:13:54;;;;;;;55.97;20.05;;;;;;;9.34;nan;99231.78;5056188;28;20033;-80
2023/10/27 03:16:19;;;;;;;60.60;21.42;;;;;;;9.35;nan;99242.22;5054584;28;20064;-79
2023/10/27 03:18:45;;;;;;;57.03;19.90;;;;;;;9.35;nan;99236.91;5055643;28;20079;-80
2023/10/27 03:21:10;;;;;;;58.65;19.80;;;;;;;9.35;nan;99236.91;5054527;28;20029;-79
2023/10/27 03:23:36;;;;;;;53.72;19.13;;;;;;;9.37;nan;99235.94;5055311;28;20037;-80
2023/10/27 03:26:02;;;;;;;55.35;19.27;;;;;;;9.37;nan;99236.75;5054737;28;20061;-81
2023/10/27 03:28:28;;;;;;;53.10;18.50;;;;;;;9.35;nan;99231.59;5055342;28;20041;-81
2023/10/27 03:30:53;;;;;;;55.30;18.83;;;;;;;9.38;nan;99235.75;5055620;28;20029;-80
2023/10/27 03:33:19;;;;;;;47.50;16.75;;;;;;;9.38;nan;99238.41;5055573;28;20029;-79
2023/10/27 03:35:44;;;;;;;52.88;18.63;;;;;;;9.36;nan;99232.47;5055523;28;20043;-79
2023/10/27 03:38:11;;;;;;;56.33;18.77;;;;;;;9.38;nan;99229.63;5055198;28;20062;-79
2023/10/27 03:40:37;;;;;;;46.67;17.17;;;;;;;9.39;nan;99231.25;5054669;28;20146;-80
2023/10/27 03:43:02;;;;;;;46.75;16.35;;;;;;;9.39;nan;99225.97;5055404;28;20033;-80
2023/10/27 03:45:28;;;;;;;49.40;15.68;;;;;;;9.40;nan;99223.13;5054530;28;20048;-82
2023/10/27 03:47:53;;;;;;;41.63;14.85;;;;;;;9.38;nan;99221.66;5055350;28;20033;-79
2023/10/27 03:50:19;;;;;;;47.30;15.10;;;;;;;9.40;nan;99219.66;5055173;28;20048;-81
2023/10/27 03:52:44;;;;;;;42.63;15.20;;;;;;;9.40;nan;99225.78;5055691;28;20449;-81
2023/10/27 03:55:11;;;;;;;43.63;15.02;;;;;;;9.37;nan;99223.47;5055727;28;20528;-81
2023/10/27 03:57:39;;;;;;;42.95;16.08;;;;;;;9.38;nan;99225.13;5055025;28;20365;-81
2023/10/27 04:00:07;;;;;;;44.88;14.02;;;;;;;9.37;nan;99220.81;5055058;28;20036;-80
2023/10/27 04:02:35;;;;;;;39.53;13.82;;;;;;;9.39;nan;99226.81;5054305;28;20037;-81
2023/10/27 04:05:00;;;;;;;37.97;13.73;;;;;;;9.38;nan;99219.84;5055565;28;20115;-81
2023/10/27 04:07:26;;;;;;;37.03;12.93;;;;;;;9.38;nan;99222.47;5055094;28;20112;-81
2023/10/27 04:09:52;;;;;;;33.08;12.27;;;;;;;9.38;nan;99219.84;5055230;28;20029;-80
2023/10/27 04:12:17;;;;;;;39.50;12.70;;;;;;;9.35;nan;99220.16;5038939;28;20368;-80
2023/10/27 04:14:43;;;;;;;36.17;12.43;;;;;;;9.35;nan;99220.16;5055465;28;20025;-80
2023/10/27 04:17:08;;;;;;;34.53;12.57;;;;;;;9.34;nan;99221.16;5054785;28;20484;-80
2023/10/27 04:19:33;;;;;;;38.78;12.38;;;;;;;9.37;nan;99225.31;5054643;28;20036;-80
2023/10/27 04:21:59;;;;;;;32.28;12.80;;;;;;;9.36;nan;99224.50;5055019;28;20106;-80
2023/10/27 04:24:25;;;;;;;34.75;12.57;;;;;;;9.35;nan;99228.94;5051065;28;20049;-80
2023/10/27 04:26:51;;;;;;;37.53;12.80;;;;;;;9.34;nan;99223.81;5034958;28;20128;-79
2023/10/27 04:29:17;;;;;;;35.10;13.60;;;;;;;9.34;nan;99229.97;5034381;28;20526;-80
2023/10/27 04:31:44;;;;;;;40.00;13.55;;;;;;;9.37;nan;99228.78;5017218;28;20033;-81
2023/10/27 04:34:10;;;;;;;36.67;13.30;;;;;;;9.38;nan;99226.97;5034557;28;20119;-81
2023/10/27 04:36:36;;;;;;;40.28;13.82;;;;;;;9.38;nan;99219.00;5034113;28;20065;-81
2023/10/27 04:39:03;;;;;;;43.22;13.52;;;;;;;9.39;nan;99228.63;5034542;28;20035;-81
2023/10/27 04:41:32;;;;;;;37.15;13.07;;;;;;;9.38;nan;99230.44;5034346;28;20037;-79
2023/10/27 04:43:58;;;;;;;40.22;14.13;;;;;;;9.38;nan;99224.31;5034298;28;20036;-80
2023/10/27 04:46:23;;;;;;;42.65;13.77;;;;;;;9.41;nan;99234.59;5034637;28;20116;-81
2023/10/27 04:48:49;;;;;;;40.15;13.32;;;;;;;9.39;nan;99231.25;5033952;28;20041;-82
2023/10/27 04:51:14;;;;;;;36.45;12.90;;;;;;;9.42;nan;99238.88;5033931;28;20029;-80
2023/10/27 04:53:40;;;;;;;37.53;13.52;;;;;;;9.43;nan;99237.91;5034094;28;20037;-81
2023/10/27 04:56:06;;;;;;;43.25;13.35;;;;;;;9.41;nan;99237.25;5016632;28;20033;-81
2023/10/27 04:58:31;;;;;;;42.33;14.15;;;;;;;9.42;nan;99233.56;5034193;28;20374;-80
2023/10/27 05:00:57;;;;;;;36.70;13.45;;;;;;;9.41;nan;99226.63;5033472;28;20465;-83
2023/10/27 05:03:22;;;;;;;42.58;13.93;;;;;;;9.40;nan;99230.28;5017173;28;20029;-81
2023/10/27 05:05:47;;;;;;;45.05;14.23;;;;;;;9.41;nan;99230.09;5033899;28;20431;-81
2023/10/27 05:08:13;;;;;;;39.75;13.73;;;;;;;9.42;nan;99230.91;5016191;28;20445;-81
2023/10/27 05:10:40;;;;;;;44.22;14.57;;;;;;;9.42;nan;99234.44;5034157;28;20385;-85
2023/10/27 05:13:06;;;;;;;45.22;15.48;;;;;;;9.43;nan;99229.94;5034382;28;20037;-81
2023/10/27 05:15:31;;;;;;;50.55;15.50;;;;;;;9.41;nan;99230.09;5033783;28;20041;-81
2023/10/27 05:17:56;;;;;;;52.55;16.23;;;;;;;9.40;nan;99233.75;5033846;28;20036;-81
2023/10/27 05:20:22;;;;;;;45.53;15.15;;;;;;;9.42;nan;99233.56;5016184;28;20033;-81
2023/10/27 05:22:47;;;;;;;49.33;16.40;;;;;;;9.39;nan;99232.13;5033992;28;20026;-81
2023/10/27 05:25:13;;;;;;;52.17;16.00;;;;;;;9.40;nan;99227.63;5033796;28;20057;-80
2023/10/27 05:27:38;;;;;;;49.42;17.55;;;;;;;9.40;nan;99233.75;5016160;28;20112;-80
2023/10/27 05:30:04;;;;;;;46.85;16.50;;;;;;;9.40;nan;99230.28;4999689;28;20468;-81
2023/10/27 05:32:29;;;;;;;46.95;16.13;;;;;;;9.39;nan;99226.81;5033741;28;20037;-79
2023/10/27 05:34:55;;;;;;;50.53;16.73;;;;;;;9.38;nan;99225.13;5033480;28;20041;-81
2023/10/27 05:37:21;;;;;;;47.08;17.10;;;;;;;9.35;nan;99223.66;5033585;28;20032;-80
2023/10/27 05:39:47;;;;;;;52.58;16.52;;;;;;;9.36;nan;99229.81;5033474;28;20379;-82
2023/10/27 05:42:13;;;;;;;49.72;15.93;;;;;;;9.36;nan;99232.47;5033121;28;20036;-82
2023/10/27 05:44:41;;;;;;;51.53;15.70;;;;;;;9.35;nan;99226.31;5033129;28;20045;-80
2023/10/27 05:47:06;;;;;;;46.97;15.70;;;;;;;9.33;nan;99227.47;5015758;28;20033;-80
2023/10/27 05:49:32;;;;;;;50.33;16.10;;;;;;;9.33;nan;99230.97;5033837;28;20092;-80
2023/10/27 05:52:02;;;;;;;45.55;16.25;;;;;;;9.31;nan;99222.31;5033037;28;20121;-80
2023/10/27 05:54:28;;;;;;;45.92;15.82;;;;;;;9.32;nan;99228.47;5033583;28;20040;-82
2023/10/27 05:56:53;;;;;;;47.45;16.40;;;;;;;9.32;nan;99228.47;5033479;28;20116;-81
2023/10/27 05:59:18;;;;;;;46.03;16.05;;;;;;;9.31;nan;99221.50;5033340;28;20041;-81
2023/10/27 06:01:44;;;;;;;54.45;16.15;;;;;;;9.29;nan;99224.34;5033094;28;20045;-81
2023/10/27 06:04:09;;;;;;;50.15;17.02;;;;;;;9.29;nan;99226.16;5033118;28;20040;-81
2023/10/27 06:06:34;;;;;;;55.95;16.02;;;;;;;9.27;nan;99226.34;5033559;28;20030;-82
2023/10/27 06:09:00;;;;;;;51.38;16.27;;;;;;;9.26;nan;99227.31;5015718;28;20036;-80
2023/10/27 06:11:25;;;;;;;44.13;15.57;;;;;;;9.25;nan;99228.31;5032791;28;20034;-82
2023/10/27 06:13:50;;;;;;;43.40;15.32;;;;;;;9.24;nan;99232.00;5001071;28;20038;-82
2023/10/27 06:16:16;;;;;;;41.85;15.10;;;;;;;9.23;nan;99222.34;5037525;28;20044;-82
2023/10/27 06:18:41;;;;;;;52.92;15.82;;;;;;;9.23;nan;99229.50;5037524;28;20078;-81
2023/10/27 06:21:07;;;;;;;51.25;16.00;;;;;;;9.22;nan;99225.19;5036918;28;20033;-81
2023/10/27 06:23:32;;;;;;;49.25;15.73;;;;;;;9.16;nan;99230.16;5036742;28;20044;-82
2023/10/27 06:25:57;;;;;;;48.65;15.35;;;;;;;9.16;nan;99227.50;5031819;28;20056;-81
2023/10/27 06:28:23;;;;;;;52.97;15.90;;;;;;;9.18;nan;99235.28;5056228;28;20029;-84
2023/10/27 06:30:48;;;;;;;44.25;15.05;;;;;;;9.15;nan;99232.97;5056804;28;20529;-82
2023/10/27 06:33:14;;;;;;;39.53;14.27;;;;;;;9.13;nan;99235.81;5056723;28;20044;-81
2023/10/27 06:35:39;;;;;;;40.88;14.82;;;;;;;9.12;nan;99230.66;5055508;28;20032;-83
2023/10/27 06:38:05;;;;;;;41.17;14.82;;;;;;;9.14;nan;99245.44;5056558;28;20040;-82
2023/10/27 06:40:31;;;;;;;47.35;14.25;;;;;;;9.14;nan;99234.81;5056506;28;20453;-82
2023/10/27 06:42:56;;;;;;;44.97;14.18;;;;;;;9.14;nan;99239.31;5056295;28;20441;-83
2023/10/27 06:45:21;;;;;;;44.58;15.02;;;;;;;9.14;nan;99242.78;5056603;28;20086;-82
2023/10/27 06:47:47;;;;;;;42.78;14.25;;;;;;;9.14;nan;99244.63;5055317;28;20039;-83
2023/10/27 06:50:12;;;;;;;47.67;14.30;;;;;;;9.14;nan;99252.56;5056322;28;20120;-79
2023/10/27 06:52:37;;;;;;;39.65;12.93;;;;;;;9.13;nan;99249.06;5056042;28;20021;-81
2023/10/27 06:55:03;;;;;;;40.30;13.60;;;;;;;9.12;nan;99247.44;5056480;28;20416;-82
2023/10/27 06:57:30;;;;;;;44.22;13.95;;;;;;;9.12;nan;99251.88;5056288;28;20029;-80
2023/10/27 06:59:56;;;;;;;38.42;13.25;;;;;;;9.11;nan;99251.06;5055804;28;20039;-78
2023/10/27 07:02:25;;;;;;;42.45;13.27;;;;;;;9.14;nan;99255.22;5054568;28;20072;-80
2023/10/27 07:04:50;;;;;;;35.78;12.10;;;;;;;9.14;nan;99257.88;5056702;28;20029;-79
2023/10/27 07:07:16;;;;;;;37.60;13.25;;;;;;;9.15;nan;99262.16;5055896;28;20358;-80
2023/10/27 07:09:42;;;;;;;46.08;14.57;;;;;;;9.14;nan;99255.22;5055977;28;20465;-83
2023/10/27 07:12:08;;;;;;;47.15;15.45;;;;;;;9.14;nan;99261.34;5056158;28;20040;-80
2023/10/27 07:14:35;;;;;;;43.85;15.63;;;;;;;9.16;nan;99258.53;5055662;28;20401;-81
2023/10/27 07:17:01;;;;;;;54.30;16.27;;;;;;;9.17;nan;99258.34;5054925;28;20033;-84
2023/10/27 07:19:26;;;;;;;54.70;16.48;;;;;;;9.18;nan;99257.38;5054484;28;20053;-84
2023/10/27 07:21:52;;;;;;;43.05;14.63;;;;;;;9.19;nan;99263.50;5055774;28;20035;-86
2023/10/27 07:24:17;;;;;;;47.22;15.05;;;;;;;9.22;nan;99265.81;5054462;28;20033;-85
2023/10/27 07:26:43;;;;;;;51.33;16.08;;;;;;;9.22;nan;99263.16;5035801;28;20041;-86
2023/10/27 07:29:09;;;;;;;56.80;16.42;;;;;;;9.24;nan;99266.50;5018297;28;20030;-84
2023/10/27 07:31:35;;;;;;;54.33;17.05;;;;;;;9.27;nan;99268.81;5035429;28;20029;-85
2023/10/27 07:34:00;;;;;;;54.08;16.27;;;;;;;9.26;nan;99264.47;5036278;28;20095;-82
2023/10/27 07:36:26;;;;;;;49.50;16.02;;;;;;;9.26;nan;99275.09;5035632;28;20040;-84
2023/10/27 07:38:52;;;;;;;55.15;16.00;;;;;;;9.30;nan;99271.13;5035367;28;20038;-83
2023/10/27 07:41:17;;;;;;;54.03;16.50;;;;;;;9.31;nan;99269.28;5035278;28;20037;-88
2023/10/27 07:43:43;;;;;;;49.15;15.20;;;;;;;9.31;nan;99269.28;5035337;28;20034;-85
2023/10/27 07:46:08;;;;;;;54.35;16.58;;;;;;;9.32;nan;99270.94;5035136;28;20057;-84
2023/10/27 07:48:34;;;;;;;58.30;16.08;;;;;;;9.34;nan;99272.44;5034781;28;20060;-81
2023/10/27 07:51:03;;;;;;;49.85;15.10;;;;;;;9.39;nan;99277.25;5035444;28;20069;-84
2023/10/27 07:53:29;;;;;;;51.25;15.50;;;;;;;9.40;nan;99275.41;5034974;28;20086;-79
2023/10/27 07:55:57;;;;;;;53.45;15.93;;;;;;;9.43;nan;99275.88;5034880;28;20474;-83
2023/10/27 07:58:25;;;;;;;53.33;16.63;;;;;;;9.45;nan;99275.72;5035806;28;20116;-81
2023/10/27 08:00:53;;;;;;;54.17;16.38;;;;;;;9.48;nan;99278.03;5035050;28;20044;-84
2023/10/27 08:03:21;;;;;;;50.42;16.35;;;;;;;9.50;nan;99279.53;5035024;28;20034;-86
2023/10/27 08:05:47;;;;;;;51.03;16.50;;;;;;;9.51;nan;99281.19;5017007;28;20164;-84
2023/10/27 08:08:13;;;;;;;54.95;16.63;;;;;;;9.55;nan;99283.50;5035223;28;20083;-82
2023/10/27 08:10:38;;;;;;;52.25;16.42;;;;;;;9.57;nan;99284.16;5034389;28;20037;-79
2023/10/27 08:13:05;;;;;;;52.92;16.08;;;;;;;9.61;nan;99288.13;5034330;28;20038;-87
2023/10/27 08:15:34;;;;;;;54.42;15.80;;;;;;;9.66;nan;99288.47;5034946;28;20492;-85
2023/10/27 08:18:01;;;;;;;48.97;16.20;;;;;;;9.68;nan;99286.44;5035032;28;20482;-84
2023/10/27 08:20:26;;;;;;;48.15;15.85;;;;;;;9.69;nan;99290.75;5034396;28;20025;-81
2023/10/27 08:22:52;;;;;;;48.75;15.73;;;;;;;9.70;nan;99295.91;5034464;28;20030;-81
2023/10/27 08:25:22;;;;;;;50.80;15.85;;;;;;;9.70;nan;99289.75;5034811;28;20053;-83
2023/10/27 08:27:48;;;;;;;58.25;15.35;;;;;;;9.71;nan;99297.53;5034567;28;20029;-80
2023/10/27 08:30:14;;;;;;;48.30;15.65;;;;;;;9.75;nan;99294.53;5034808;28;20048;-80
2023/10/27 08:32:40;;;;;;;48.90;15.32;;;;;;;9.75;nan;99294.53;5035142;28;20037;-83
2023/10/27 08:35:06;;;;;;;58.63;16.63;;;;;;;9.74;nan;99287.59;5034466;28;20084;-82
2023/10/27 08:37:31;;;;;;;47.90;15.18;;;;;;;9.74;nan;99291.06;5034307;28;20032;-82
2023/10/27 08:39:57;;;;;;;46.17;14.77;;;;;;;9.74;nan;99298.22;5034426;28;20308;-81
2023/10/27 08:42:22;;;;;;;40.90;14.10;;;;;;;9.76;nan;99297.03;5034452;28;20037;-80
2023/10/27 08:44:48;;;;;;;36.80;13.70;;;;;;;9.73;nan;99294.72;5034445;28;20107;-84
2023/10/27 08:47:16;;;;;;;35.53;13.38;;;;;;;9.68;nan;99297.06;5016689;28;20474;-84
2023/10/27 08:49:41;;;;;;;40.72;15.15;;;;;;;9.65;nan;99295.56;5017171;28;20033;-83
2023/10/27 08:52:08;;;;;;;38.58;13.73;;;;;;;9.66;nan;99285.81;5016556;28;20151;-83
2023/10/27 08:54:38;;;;;;;42.85;14.40;;;;;;;9.71;nan;99291.41;5016840;28;20052;-83
2023/10/27 08:57:05;;;;;;;44.10;14.23;;;;;;;9.75;nan;99294.53;5034986;28;20108;-84
2023/10/27 08:59:30;;;;;;;43.72;13.77;;;;;;;9.75;nan;99290.06;5033837;28;20427;-82
2023/10/27 09:01:55;;;;;;;40.60;13.27;;;;;;;9.76;nan;99288.25;5034185;28;20045;-83
2023/10/27 09:04:23;;;;;;;35.35;12.82;;;;;;;9.76;nan;99288.25;5034526;28;20034;-83
2023/10/27 09:06:49;;;;;;;31.08;11.60;;;;;;;9.77;nan;99292.56;5033858;28;20032;-84
2023/10/27 09:09:14;;;;;;;32.15;11.05;;;;;;;9.78;nan;99295.03;5034669;28;20479;-83
2023/10/27 09:11:47;;;;;;;30.85;11.88;;;;;;;9.80;nan;99292.22;5034053;28;20095;-81
2023/10/27 09:14:31;;;;;;;32.38;11.63;;;;;;;9.87;nan;99295.84;5034303;28;20489;-86
2023/10/27 09:17:07;;;;;;;32.08;12.02;;;;;;;9.92;nan;99296.16;5034263;28;20454;-81
2023/10/27 09:19:34;;;;;;;29.20;11.15;;;;;;;9.96;nan;99297.47;5015873;28;20504;-83
2023/10/27 09:22:00;;;;;;;30.80;12.07;;;;;;;9.97;nan;99298.28;5016347;28;20543;-82
2023/10/27 09:24:27;;;;;;;34.83;12.88;;;;;;;9.98;nan;99300.75;5033203;28;20029;-82
2023/10/27 09:26:59;;;;;;;32.58;12.48;;;;;;;9.95;nan;99302.94;5034054;28;20065;-83
2023/10/27 09:29:26;;;;;;;29.73;12.18;;;;;;;9.97;nan;99306.25;5033903;28;20032;-82
2023/10/27 09:31:52;;;;;;;33.55;12.00;;;;;;;9.97;nan;99307.09;5033957;28;20087;-83
2023/10/27 09:34:25;;;;;;;33.13;13.10;;;;;;;10.01;nan;99297.75;5033767;28;20087;-82
2023/10/27 09:36:58;;;;;;;29.98;12.05;;;;;;;10.03;nan;99308.22;5033539;28;20034;-84
2023/10/27 09:39:24;;;;;;;27.58;12.07;;;;;;;9.97;nan;99307.09;5033943;28;20026;-82
2023/10/27 09:42:04;;;;;;;34.13;13.18;;;;;;;10.01;nan;99304.91;5033654;28;20041;-84
2023/10/27 09:44:35;;;;;;;35.97;12.30;;;;;;;10.05;nan;99309.72;5015923;28;20064;-86
2023/10/27 09:47:05;;;;;;;32.60;12.15;;;;;;;10.09;nan;99312.88;5033888;28;20043;-83
2023/10/27 09:49:38;;;;;;;37.35;12.45;;;;;;;10.08;nan;99313.84;5033743;28;20052;-83
2023/10/27 09:52:09;;;;;;;37.17;12.43;;;;;;;10.11;nan;99310.84;5016133;28;20117;-84
2023/10/27 09:54:35;;;;;;;30.42;11.98;;;;;;;10.13;nan;99313.34;5034055;28;20076;-87
2023/10/27 09:57:01;;;;;;;30.83;11.90;;;;;;;10.15;nan;99306.84;5015980;28;20037;-84
2023/10/27 09:59:28;;;;;;;30.48;12.40;;;;;;;10.17;nan;99310.16;5033769;28;20040;-83
2023/10/27 10:01:55;;;;;;;28.58;12.13;;;;;;;10.16;nan;99308.47;5016458;28;20038;-84
2023/10/27 10:04:56;;;;;;;24.17;11.15;;;;;;;10.19;nan;99312.63;5034036;28;20033;-84
2023/10/27 10:07:33;;;;;;;25.23;10.70;;;;;;;10.15;nan;99308.66;5034042;28;20108;-83
2023/10/27 10:10:34;;;;;;;23.17;9.90;;;;;;;10.11;nan;99318.81;5034297;28;20136;-82
2023/10/27 10:13:01;;;;;;;19.85;9.05;;;;;;;10.03;nan;99324.16;5034772;28;20464;-83
2023/10/27 10:15:27;;;;;;;18.10;9.20;;;;;;;10.05;nan;99322.19;5033476;28;20445;-84
2023/10/27 10:17:53;;;;;;;21.88;8.82;;;;;;;10.06;nan;99323.81;5016739;28;20038;-83
2023/10/27 10:20:41;;;;;;;21.15;8.77;;;;;;;10.15;nan;99319.28;5033643;28;20465;-83
2023/10/27 10:23:09;;;;;;;18.38;8.27;;;;;;;10.20;nan;99317.78;5017574;28;20121;-84
2023/10/27 10:25:36;;;;;;;19.42;8.50;;;;;;;10.24;nan;99316.44;5033665;28;20042;-85
2023/10/27 10:28:07;;;;;;;17.70;8.55;;;;;;;10.32;nan;99315.56;5034968;28;20458;-83
2023/10/27 10:30:43;;;;;;;15.98;7.78;;;;;;;10.43;nan;99308.22;5039961;28;20102;-83
2023/10/27 10:33:15;;;;;;;16.40;7.80;;;;;;;10.48;nan;99317.34;5020866;28;20034;-81
2023/10/27 10:35:42;;;;;;;17.17;7.90;;;;;;;10.48;nan;99314.69;5034869;28;20029;-79
2023/10/27 10:38:22;;;;;;;12.73;7.10;;;;;;;10.40;nan;99315.56;5033126;28;20052;-81
2023/10/27 10:40:51;;;;;;;14.98;7.15;;;;;;;10.41;nan;99311.06;5015513;28;20033;-85
2023/10/27 10:43:20;;;;;;;13.60;6.95;;;;;;;10.47;nan;99312.19;5033615;28;20083;-84
2023/10/27 10:45:53;;;;;;;14.88;7.25;;;;;;;10.55;nan;99304.16;5015465;28;20481;-85
2023/10/27 10:48:26;;;;;;;14.63;7.72;;;;;;;10.68;nan;99312.38;5033043;28;20079;-86
2023/10/27 10:50:55;;;;;;;15.85;7.82;;;;;;;10.79;nan;99299.66;5033957;28;20025;-88
2023/10/27 10:53:22;;;;;;;21.38;7.10;;;;;;;10.80;nan;99302.16;5033329;28;20480;-82
2023/10/27 10:55:48;;;;;;;16.67;8.13;;;;;;;10.78;nan;99306.81;5016134;28;20053;-83
2023/10/27 10:58:33;;;;;;;16.60;8.25;;;;;;;10.80;nan;99304.00;5033017;28;20442;-86
2023/10/27 11:00:59;;;;;;;15.55;8.10;;;;;;;10.76;nan;99304.34;5018657;28;20061;-84
2023/10/27 11:03:27;;;;;;;15.23;7.95;;;;;;;10.70;nan;99313.03;5018484;28;20406;-77
2023/10/27 11:05:58;;;;;;;16.85;8.10;;;;;;;10.72;nan;99305.69;5035909;28;20038;-80
2023/10/27 11:08:25;;;;;;;18.43;9.03;;;;;;;10.83;nan;99301.78;5036646;28;20323;-84
2023/10/27 11:11:16;;;;;;;18.70;9.05;;;;;;;10.93;nan;99305.03;5036139;28;20072;-80
2023/10/27 11:13:51;;;;;;;17.42;8.00;;;;;;;10.91;nan;99295.56;5036167;28;20029;-80
2023/10/27 11:16:17;;;;;;;14.02;8.18;;;;;;;10.88;nan;99299.44;5018783;28;20370;-80
2023/10/27 11:18:44;;;;;;;16.42;9.18;;;;;;;10.86;nan;99300.63;5036179;28;20037;-86
2023/10/27 11:21:23;;;;;;;15.90;9.18;;;;;;;10.92;nan;99295.38;5035895;28;20048;-83
2023/10/27 11:23:50;;;;;;;25.42;9.55;;;;;;;10.97;nan;99297.50;5035846;28;20057;-77
2023/10/27 11:26:19;;;;;;;15.32;8.68;;;;;;;11.04;nan;99295.78;5036281;28;20099;-82
2023/10/27 11:28:46;;;;;;;15.27;8.98;;;;;;;11.04;nan;99301.13;5035736;28;20033;-81
2023/10/27 11:31:12;;;;;;;15.80;8.65;;;;;;;11.03;nan;99307.47;5035761;28;20120;-81
2023/10/27 11:34:00;;;;;;;14.85;8.77;;;;;;;11.00;nan;99306.97;5035666;28;20025;-80
2023/10/27 11:36:27;;;;;;;16.00;9.10;;;;;;;10.94;nan;99304.03;5035865;28;20038;-80
2023/10/27 11:38:54;;;;;;;17.85;8.90;;;;;;;10.92;nan;99297.22;5035358;28;20083;-80
2023/10/27 11:41:19;;;;;;;13.55;7.40;;;;;;;10.90;nan;99302.72;5035601;28;20112;-82